Time;durP1;ratioP1;P1;durP2;ratioP2;P2;SDS_P1;SDS_P2;PMS_P1;PMS_P2;Temp;Humidity;BMP_temperature;BMP_pressure;BME280_temperature;BME280_humidity;BME280_pressure;Samples;Min_cycle;Max_cycle;Signal;HPM_P1;HPM_P2
2023/05/03 00:01:14;;;;;;;3.25;1.75;;;21.70;65.90;;;;;;5019375;28;20209;-51
2023/05/03 00:03:42;;;;;;;4.53;2.20;;;21.70;65.90;;;;;;5031008;28;20200;-57
2023/05/03 00:06:14;;;;;;;3.92;2.17;;;21.70;65.90;;;;;;5030532;28;20703;-54
2023/05/03 00:08:41;;;;;;;3.47;1.98;;;21.60;65.90;;;;;;5024920;28;20197;-54
2023/05/03 00:11:09;;;;;;;3.22;1.85;;;21.60;65.90;;;;;;5030088;28;20224;-50
2023/05/03 00:13:36;;;;;;;3.13;2.42;;;21.60;66.00;;;;;;5029146;28;20201;-50
2023/05/03 00:16:03;;;;;;;2.38;1.90;;;21.60;66.00;;;;;;5021827;28;20196;-51
2023/05/03 00:18:30;;;;;;;2.22;1.70;;;21.60;66.00;;;;;;5027127;28;20200;-53
2023/05/03 00:20:58;;;;;;;1.80;1.40;;;21.60;66.10;;;;;;5030542;28;20251;-53
2023/05/03 00:23:27;;;;;;;2.97;1.95;;;21.50;66.00;;;;;;5018919;28;20293;-56
2023/05/03 00:25:55;;;;;;;3.13;1.88;;;21.50;66.00;;;;;;5027355;28;20344;-53
2023/05/03 00:28:22;;;;;;;3.40;2.20;;;21.50;66.80;;;;;;5027111;28;20192;-55
2023/05/03 00:30:49;;;;;;;2.20;2.00;;;21.50;66.10;;;;;;5019921;28;20731;-53
2023/05/03 00:33:16;;;;;;;3.30;2.10;;;21.50;66.00;;;;;;5028091;28;20196;-52
2023/05/03 00:35:43;;;;;;;2.55;2.05;;;21.50;66.10;;;;;;5033494;28;20192;-53
2023/05/03 00:38:09;;;;;;;2.28;1.77;;;21.50;66.10;;;;;;5020383;28;20204;-53
2023/05/03 00:40:37;;;;;;;2.90;2.15;;;21.40;66.00;;;;;;5025804;28;20211;-50
2023/05/03 00:43:04;;;;;;;2.90;2.25;;;21.50;66.20;;;;;;5036866;28;20200;-53
2023/05/03 00:45:33;;;;;;;2.28;1.90;;;21.40;66.10;;;;;;5017645;28;20228;-51
2023/05/03 00:48:00;;;;;;;3.30;1.88;;;21.40;66.10;;;;;;5029458;28;20199;-52
2023/05/03 00:50:27;;;;;;;3.63;1.97;;;21.50;66.30;;;;;;5036669;28;20219;-51
2023/05/03 00:52:55;;;;;;;2.50;2.00;;;21.50;66.40;;;;;;5026164;28;20464;-54
2023/05/03 00:55:22;;;;;;;3.38;1.80;;;21.40;66.20;;;;;;5024711;28;20619;-54
2023/05/03 00:57:50;;;;;;;2.08;1.70;;;21.50;66.40;;;;;;5030424;28;20254;-49
2023/05/03 01:00:17;;;;;;;2.70;1.90;;;21.40;66.20;;;;;;5018347;28;20612;-54
2023/05/03 01:02:43;;;;;;;2.38;1.95;;;21.40;66.30;;;;;;5024293;28;20203;-49
2023/05/03 01:05:10;;;;;;;2.97;2.38;;;21.40;66.20;;;;;;5031367;28;20196;-53
2023/05/03 01:07:45;;;;;;;2.90;1.80;;;21.40;66.30;;;;;;5024544;28;20201;-54
2023/05/03 01:10:22;;;;;;;2.15;1.95;;;21.40;66.30;;;;;;5025655;28;20687;-51
2023/05/03 01:12:56;;;;;;;2.85;1.75;;;21.40;66.30;;;;;;5029191;28;20309;-54
2023/05/03 01:15:38;;;;;;;1.80;1.48;;;21.40;66.30;;;;;;5018476;28;20291;-52
2023/05/03 01:18:12;;;;;;;3.90;1.92;;;21.40;66.30;;;;;;5030107;28;20207;-54
2023/05/03 01:20:43;;;;;;;2.83;2.00;;;21.40;66.30;;;;;;5019939;28;20770;-54
2023/05/03 01:23:14;;;;;;;2.22;1.60;;;21.40;66.30;;;;;;5025792;28;20228;-52
2023/05/03 01:25:42;;;;;;;2.13;1.80;;;21.30;66.20;;;;;;5028789;28;20593;-53
2023/05/03 01:28:09;;;;;;;1.55;1.42;;;21.30;66.30;;;;;;5020729;28;20223;-52
2023/05/03 01:30:37;;;;;;;3.47;2.35;;;21.40;66.30;;;;;;5026118;28;20231;-52
2023/05/03 01:33:12;;;;;;;2.70;1.95;;;21.40;66.40;;;;;;5028503;28;20204;-55
2023/05/03 01:35:41;;;;;;;1.75;1.40;;;21.30;66.30;;;;;;5023888;28;20751;-53
2023/05/03 01:38:10;;;;;;;2.92;1.45;;;21.30;66.20;;;;;;5028902;28;20222;-54
2023/05/03 01:40:44;;;;;;;2.90;1.90;;;21.30;66.40;;;;;;5024351;28;20197;-57
2023/05/03 01:43:13;;;;;;;2.60;1.80;;;21.30;66.30;;;;;;5028468;28;20245;-55
2023/05/03 01:45:40;;;;;;;2.55;2.03;;;21.30;66.40;;;;;;5029723;28;20200;-52
2023/05/03 01:48:11;;;;;;;2.60;1.90;;;21.30;66.40;;;;;;5034562;28;20253;-53
2023/05/03 01:50:37;;;;;;;2.90;1.70;;;21.20;66.40;;;;;;5022314;28;20759;-48
2023/05/03 01:53:04;;;;;;;1.50;1.40;;;21.20;66.40;;;;;;5032469;28;20201;-52
2023/05/03 01:55:31;;;;;;;3.88;1.80;;;21.30;66.60;;;;;;5030049;28;20660;-53
2023/05/03 01:57:59;;;;;;;2.13;1.85;;;21.20;66.50;;;;;;5032557;28;20250;-49
2023/05/03 02:00:26;;;;;;;2.80;2.00;;;21.30;66.70;;;;;;5025761;28;20287;-53
2023/05/03 02:02:52;;;;;;;2.15;1.95;;;21.20;66.50;;;;;;5029137;28;20617;-52
2023/05/03 02:05:19;;;;;;;2.30;1.42;;;21.20;66.50;;;;;;5028765;28;20196;-54
2023/05/03 02:07:46;;;;;;;2.58;1.52;;;21.30;66.60;;;;;;5024909;28;20291;-49
2023/05/03 02:10:13;;;;;;;1.80;1.55;;;21.30;66.60;;;;;;5028040;28;20227;-51
2023/05/03 02:12:40;;;;;;;2.15;1.63;;;21.30;66.60;;;;;;5031272;28;20553;-49
2023/05/03 02:15:09;;;;;;;2.40;1.90;;;21.20;66.40;;;;;;5025711;28;20650;-56
2023/05/03 02:17:36;;;;;;;1.80;1.65;;;21.30;66.50;;;;;;5029683;28;20247;-51
2023/05/03 02:20:05;;;;;;;1.85;1.35;;;21.20;66.50;;;;;;5028836;28;20208;-55
2023/05/03 02:22:32;;;;;;;3.80;1.73;;;21.30;66.50;;;;;;5030238;28;20239;-52
2023/05/03 02:24:59;;;;;;;2.33;1.92;;;21.20;66.40;;;;;;5032367;28;20207;-54
2023/05/03 02:27:26;;;;;;;1.98;1.65;;;21.20;66.50;;;;;;5026241;28;20278;-50
2023/05/03 02:29:53;;;;;;;3.90;2.60;;;21.20;66.40;;;;;;5030828;28;20632;-54
2023/05/03 02:32:21;;;;;;;2.15;1.50;;;21.20;66.50;;;;;;5034012;28;20195;-54
2023/05/03 02:34:49;;;;;;;3.25;2.10;;;21.20;66.50;;;;;;5038975;28;20192;-55
2023/05/03 02:37:16;;;;;;;3.28;2.00;;;21.20;66.50;;;;;;5035055;28;20195;-49
2023/05/03 02:39:42;;;;;;;3.28;1.95;;;21.20;66.50;;;;;;5032303;28;20709;-51
2023/05/03 02:42:09;;;;;;;1.85;1.38;;;21.20;66.50;;;;;;5035836;28;20321;-49
2023/05/03 02:44:36;;;;;;;2.20;1.30;;;21.20;66.60;;;;;;5029446;28;20196;-53
2023/05/03 02:47:02;;;;;;;3.72;1.83;;;21.10;66.50;;;;;;5031423;28;20622;-54
2023/05/03 02:49:31;;;;;;;2.20;1.58;;;21.10;66.50;;;;;;5032424;28;20656;-53
2023/05/03 02:51:57;;;;;;;2.33;1.50;;;21.10;66.50;;;;;;5034527;28;20223;-52
2023/05/03 02:54:24;;;;;;;2.65;1.70;;;21.10;66.50;;;;;;5029728;28;20257;-54
2023/05/03 02:56:51;;;;;;;1.83;1.55;;;21.10;66.70;;;;;;5018582;28;20189;-52
2023/05/03 02:59:18;;;;;;;1.70;1.48;;;21.10;66.70;;;;;;5033581;28;20211;-49
2023/05/03 03:01:46;;;;;;;2.65;1.52;;;21.10;66.70;;;;;;5020875;28;20196;-50
2023/05/03 03:04:13;;;;;;;1.88;1.67;;;21.10;66.80;;;;;;5033406;28;20250;-50
2023/05/03 03:06:41;;;;;;;1.88;1.60;;;21.10;66.80;;;;;;5027084;28;20568;-51
2023/05/03 03:09:07;;;;;;;2.97;1.63;;;21.10;66.80;;;;;;5027559;28;20677;-51
2023/05/03 03:11:34;;;;;;;1.85;1.50;;;21.10;66.70;;;;;;5033984;28;20266;-48
2023/05/03 03:14:01;;;;;;;2.10;1.50;;;21.10;66.70;;;;;;5028462;28;20660;-50
2023/05/03 03:16:27;;;;;;;1.83;1.52;;;21.10;66.60;;;;;;5028231;28;20294;-50
2023/05/03 03:18:54;;;;;;;2.92;1.83;;;21.10;66.70;;;;;;5035564;28;20608;-50
2023/05/03 03:21:21;;;;;;;2.55;2.33;;;21.10;66.60;;;;;;5029211;28;20611;-51
2023/05/03 03:23:49;;;;;;;2.63;2.40;;;21.10;66.70;;;;;;5031837;28;20644;-51
2023/05/03 03:26:15;;;;;;;3.08;1.73;;;21.10;66.50;;;;;;5029408;28;20211;-50
2023/05/03 03:28:42;;;;;;;1.95;1.60;;;21.10;66.50;;;;;;5037922;28;20243;-50
2023/05/03 03:31:09;;;;;;;1.40;1.20;;;21.10;66.50;;;;;;5030522;28;20235;-52
2023/05/03 03:33:35;;;;;;;1.50;1.20;;;21.10;66.70;;;;;;5028880;28;20196;-55
2023/05/03 03:36:02;;;;;;;1.75;1.38;;;21.00;66.60;;;;;;5033501;28;20259;-55
2023/05/03 03:38:29;;;;;;;1.98;1.38;;;21.00;67.30;;;;;;5036261;28;20204;-50
2023/05/03 03:40:57;;;;;;;2.15;1.35;;;21.10;66.70;;;;;;5021717;28;20649;-51
2023/05/03 03:43:23;;;;;;;2.00;1.70;;;21.00;66.50;;;;;;5028019;28;20192;-52
2023/05/03 03:45:50;;;;;;;2.90;1.77;;;21.00;66.60;;;;;;5023344;28;20196;-50
2023/05/03 03:48:17;;;;;;;1.38;1.25;;;21.00;66.60;;;;;;5034959;28;20204;-50
2023/05/03 03:50:44;;;;;;;1.50;1.40;;;21.00;66.70;;;;;;5033264;28;20224;-52
2023/05/03 03:53:11;;;;;;;1.83;1.42;;;21.00;66.70;;;;;;5028594;28;20197;-50
2023/05/03 03:55:38;;;;;;;1.80;1.55;;;21.00;66.70;;;;;;5029620;28;20258;-52
2023/05/03 03:58:06;;;;;;;1.30;1.20;;;21.00;67.60;;;;;;5037284;28;20246;-49
2023/05/03 04:00:35;;;;;;;1.83;1.30;;;21.00;66.70;;;;;;5029957;28;20283;-50
2023/05/03 04:03:01;;;;;;;2.13;1.65;;;21.00;66.70;;;;;;5027411;28;20255;-53
2023/05/03 04:05:28;;;;;;;2.20;1.45;;;21.00;66.70;;;;;;5028857;28;20643;-49
2023/05/03 04:07:55;;;;;;;2.17;2.00;;;21.00;66.70;;;;;;5025080;28;20672;-49
2023/05/03 04:10:21;;;;;;;1.95;1.50;;;21.00;66.60;;;;;;5026445;28;20652;-54
2023/05/03 04:12:48;;;;;;;2.35;1.50;;;21.00;66.60;;;;;;5028833;28;20286;-54
2023/05/03 04:15:16;;;;;;;1.85;1.40;;;21.00;66.60;;;;;;5023738;28;20196;-52
2023/05/03 04:17:43;;;;;;;2.70;1.60;;;21.00;66.60;;;;;;5027706;28;20270;-51
2023/05/03 04:20:12;;;;;;;3.90;1.50;;;21.00;66.60;;;;;;5028701;28;20200;-55
2023/05/03 04:22:39;;;;;;;1.67;1.30;;;21.00;66.60;;;;;;5024970;28;20699;-49
2023/05/03 04:25:08;;;;;;;2.70;2.05;;;21.00;66.60;;;;;;5030195;28;20204;-58
2023/05/03 04:27:37;;;;;;;2.50;1.55;;;21.00;66.70;;;;;;5020154;28;20677;-51
2023/05/03 04:30:05;;;;;;;1.60;1.50;;;21.00;66.60;;;;;;5020107;28;20227;-49
2023/05/03 04:32:36;;;;;;;2.08;1.65;;;21.00;66.60;;;;;;5022618;28;20307;-53
2023/05/03 04:35:04;;;;;;;1.73;1.40;;;21.00;66.70;;;;;;5030878;28;20200;-51
2023/05/03 04:37:31;;;;;;;1.60;1.42;;;21.00;66.70;;;;;;5026377;28;20599;-49
2023/05/03 04:39:57;;;;;;;2.22;1.40;;;20.90;66.50;;;;;;5019751;28;20193;-52
2023/05/03 04:42:24;;;;;;;2.08;1.38;;;20.90;66.50;;;;;;5026604;28;20199;-53
2023/05/03 04:44:51;;;;;;;2.50;1.50;;;21.00;66.70;;;;;;5026788;28;20199;-51
2023/05/03 04:47:18;;;;;;;1.75;1.50;;;21.00;66.70;;;;;;5035608;28;20207;-50
2023/05/03 04:49:46;;;;;;;1.65;1.52;;;21.00;66.80;;;;;;5036433;28;20200;-53
2023/05/03 04:52:13;;;;;;;2.00;1.55;;;21.00;66.80;;;;;;5030936;28;20303;-53
2023/05/03 04:54:40;;;;;;;2.42;1.50;;;21.00;67.00;;;;;;5029486;28;20660;-51
2023/05/03 04:57:09;;;;;;;2.63;1.55;;;20.90;67.90;;;;;;5027270;28;20283;-57
2023/05/03 04:59:35;;;;;;;3.28;2.05;;;20.90;67.20;;;;;;5019195;28;20251;-53
2023/05/03 05:02:02;;;;;;;3.58;1.20;;;20.90;67.10;;;;;;5017567;28;20681;-54
2023/05/03 05:04:29;;;;;;;3.90;1.50;;;20.90;67.10;;;;;;5026865;28;20278;-50
2023/05/03 05:06:58;;;;;;;1.70;1.60;;;20.90;67.00;;;;;;5028620;28;20603;-51
2023/05/03 05:09:27;;;;;;;1.98;1.48;;;20.90;67.10;;;;;;5019864;28;20207;-51
2023/05/03 05:11:54;;;;;;;3.15;1.67;;;21.00;67.60;;;;;;5034011;28;20689;-52
2023/05/03 05:14:21;;;;;;;3.88;1.67;;;21.00;67.30;;;;;;5025097;28;20203;-58
2023/05/03 05:16:47;;;;;;;11.35;1.27;;;21.00;67.40;;;;;;5020340;28;20223;-53
2023/05/03 05:19:14;;;;;;;9.48;2.65;;;21.00;67.70;;;;;;5027017;28;20225;-55
2023/05/03 05:21:41;;;;;;;31.35;2.30;;;21.00;68.70;;;;;;5029569;28;20633;-54
2023/05/03 05:24:09;;;;;;;3.78;1.95;;;21.00;68.20;;;;;;5019467;28;20452;-52
2023/05/03 05:26:36;;;;;;;4.45;1.50;;;21.00;68.10;;;;;;5022173;28;20210;-51
2023/05/03 05:29:03;;;;;;;2.03;1.30;;;21.00;68.10;;;;;;5020950;28;20207;-57
2023/05/03 05:31:30;;;;;;;5.28;1.25;;;21.00;68.10;;;;;;5015675;28;20230;-56
2023/05/03 05:33:56;;;;;;;6.07;1.77;;;21.10;68.10;;;;;;5028029;28;20192;-55
2023/05/03 05:36:23;;;;;;;4.07;1.90;;;21.10;68.10;;;;;;5031100;28;20671;-54
2023/05/03 05:38:50;;;;;;;5.78;1.70;;;21.10;68.10;;;;;;5017031;28;20236;-55
2023/05/03 05:41:18;;;;;;;3.72;1.13;;;21.10;68.00;;;;;;5023624;28;20460;-58
2023/05/03 05:43:44;;;;;;;1.63;1.23;;;21.10;67.90;;;;;;5029125;28;20211;-55
2023/05/03 05:46:11;;;;;;;3.95;1.67;;;21.10;67.90;;;;;;5019900;28;20204;-56
2023/05/03 05:48:38;;;;;;;1.40;1.17;;;21.10;68.10;;;;;;5024505;28;20203;-55
2023/05/03 05:51:05;;;;;;;3.75;1.40;;;21.20;68.00;;;;;;5024181;28;20208;-51
2023/05/03 05:53:32;;;;;;;1.73;1.25;;;21.20;68.10;;;;;;5024744;28;20287;-52
2023/05/03 05:55:59;;;;;;;4.28;1.70;;;21.20;67.90;;;;;;5028982;28;20250;-54
2023/05/03 05:58:27;;;;;;;1.75;1.15;;;21.20;67.90;;;;;;5029239;28;20566;-57
2023/05/03 06:00:57;;;;;;;3.13;1.45;;;21.20;67.80;;;;;;5021774;28;20207;-51
2023/05/03 06:03:24;;;;;;;3.58;1.30;;;21.30;67.80;;;;;;5028333;28;20201;-52
2023/05/03 06:05:51;;;;;;;2.53;1.30;;;21.30;67.80;;;;;;5018760;28;20197;-51
2023/05/03 06:08:18;;;;;;;1.83;1.30;;;21.30;67.80;;;;;;5031671;28;20467;-51
2023/05/03 06:10:44;;;;;;;2.57;1.20;;;21.30;67.70;;;;;;5025657;28;20545;-55
2023/05/03 06:13:11;;;;;;;1.42;1.08;;;21.40;67.70;;;;;;5030570;28;20488;-56
2023/05/03 06:15:40;;;;;;;1.50;1.10;;;21.40;67.60;;;;;;5022564;28;20580;-54
2023/05/03 06:18:07;;;;;;;1.60;1.20;;;21.50;67.70;;;;;;5028790;28;20219;-54
2023/05/03 06:20:34;;;;;;;4.65;2.03;;;21.50;67.70;;;;;;5029333;28;20192;-53
2023/05/03 06:23:01;;;;;;;3.30;1.40;;;21.50;67.60;;;;;;5025718;28;20527;-50
2023/05/03 06:25:27;;;;;;;1.30;1.00;;;21.50;67.60;;;;;;5024167;28;20451;-54
2023/05/03 06:27:54;;;;;;;2.10;1.40;;;21.50;67.50;;;;;;5022052;28;20471;-51
2023/05/03 06:30:22;;;;;;;2.70;1.17;;;21.50;67.50;;;;;;5029701;28;20554;-54
2023/05/03 06:32:50;;;;;;;2.10;1.43;;;21.60;67.60;;;;;;5027005;28;20524;-53
2023/05/03 06:35:18;;;;;;;1.30;1.13;;;21.60;67.60;;;;;;5029225;28;20463;-50
2023/05/03 06:37:45;;;;;;;1.77;1.17;;;21.60;67.50;;;;;;5023276;28;20458;-52
2023/05/03 06:40:12;;;;;;;1.63;1.30;;;21.60;67.50;;;;;;5014564;28;20470;-56
2023/05/03 06:42:39;;;;;;;1.43;1.30;;;21.60;67.50;;;;;;5021405;28;20837;-51
2023/05/03 06:45:07;;;;;;;1.27;1.00;;;21.60;67.40;;;;;;5026792;28;22019;-55
2023/05/03 06:47:33;;;;;;;5.07;1.50;;;21.60;67.30;;;;;;5016932;28;20458;-54
2023/05/03 06:50:01;;;;;;;2.67;1.50;;;21.60;67.00;;;;;;5018959;28;20466;-58
2023/05/03 06:52:28;;;;;;;2.20;1.17;;;21.60;67.20;;;;;;5015648;28;20528;-53
2023/05/03 06:54:55;;;;;;;3.80;1.50;;;21.60;67.10;;;;;;5034105;28;20459;-50
2023/05/03 06:57:22;;;;;;;2.50;1.50;;;21.60;67.10;;;;;;5021202;28;20465;-53
2023/05/03 06:59:49;;;;;;;1.60;1.10;;;21.60;67.00;;;;;;5014209;28;20609;-56
2023/05/03 07:02:15;;;;;;;2.00;1.37;;;21.60;67.10;;;;;;5016992;28;20471;-51
2023/05/03 07:04:42;;;;;;;1.20;1.03;;;21.60;67.00;;;;;;5025324;28;20463;-53
2023/05/03 07:07:10;;;;;;;2.37;1.20;;;21.60;67.10;;;;;;5026042;28;20466;-52
2023/05/03 07:09:37;;;;;;;3.83;1.20;;;21.60;67.10;;;;;;5014620;28;20462;-55
2023/05/03 07:12:04;;;;;;;2.13;1.20;;;21.60;67.20;;;;;;5022279;28;20490;-56
2023/05/03 07:14:31;;;;;;;1.43;1.07;;;21.60;67.00;;;;;;5020197;28;20463;-51
2023/05/03 07:16:57;;;;;;;1.67;1.00;;;21.70;67.10;;;;;;5015546;28;20884;-58
2023/05/03 07:19:24;;;;;;;5.80;1.43;;;21.70;67.10;;;;;;5027798;28;20466;-51
2023/05/03 07:21:51;;;;;;;1.90;1.13;;;21.70;67.10;;;;;;5023967;28;20486;-51
2023/05/03 07:24:19;;;;;;;1.50;1.03;;;21.70;67.20;;;;;;5028667;28;20573;-54
2023/05/03 07:26:46;;;;;;;4.70;1.57;;;21.70;67.10;;;;;;5027152;28;20826;-57
2023/05/03 07:29:12;;;;;;;2.40;1.30;;;21.70;67.10;;;;;;5031177;28;21106;-54
2023/05/03 07:31:39;;;;;;;1.80;1.10;;;21.70;67.10;;;;;;5039777;28;20532;-51
2023/05/03 07:34:06;;;;;;;3.87;1.03;;;21.70;67.10;;;;;;5033544;28;20462;-54
2023/05/03 07:36:33;;;;;;;2.93;1.20;;;21.70;67.00;;;;;;5029396;28;20537;-54
2023/05/03 07:38:59;;;;;;;1.83;1.20;;;21.80;67.10;;;;;;5031376;28;20482;-51
2023/05/03 07:41:27;;;;;;;1.73;1.07;;;21.80;67.10;;;;;;5034509;28;20527;-56
2023/05/03 07:43:54;;;;;;;3.73;1.37;;;21.80;67.10;;;;;;5037450;28;20512;-54
2023/05/03 07:46:21;;;;;;;1.67;1.23;;;21.80;67.10;;;;;;5030519;28;20493;-55
2023/05/03 07:48:48;;;;;;;1.20;0.93;;;21.80;67.10;;;;;;5025930;28;20516;-53
2023/05/03 07:51:15;;;;;;;1.60;0.97;;;21.80;67.00;;;;;;5030363;28;20470;-55
2023/05/03 07:53:42;;;;;;;1.20;1.10;;;21.80;67.00;;;;;;5029410;28;20851;-56
2023/05/03 07:56:08;;;;;;;1.40;0.97;;;21.80;67.00;;;;;;5026332;28;20501;-51
2023/05/03 07:58:36;;;;;;;1.30;1.07;;;21.80;67.00;;;;;;5021971;28;20962;-51
2023/05/03 08:01:03;;;;;;;1.30;1.00;;;21.80;66.90;;;;;;5025774;28;20866;-59
2023/05/03 08:03:30;;;;;;;1.63;1.03;;;21.80;66.80;;;;;;5021586;28;20547;-56
2023/05/03 08:05:56;;;;;;;1.60;1.10;;;21.80;66.80;;;;;;5027348;28;20466;-55
2023/05/03 08:08:23;;;;;;;3.37;1.53;;;21.80;66.80;;;;;;5026758;28;20450;-50
2023/05/03 08:10:52;;;;;;;1.47;1.03;;;21.80;66.70;;;;;;5031620;28;20549;-53
2023/05/03 08:13:21;;;;;;;2.00;1.10;;;21.80;66.80;;;;;;5031486;28;20486;-49
2023/05/03 08:15:49;;;;;;;1.50;1.10;;;21.80;66.90;;;;;;5030576;28;20558;-51
2023/05/03 08:18:16;;;;;;;1.43;1.03;;;21.80;67.00;;;;;;5027675;28;20564;-54
2023/05/03 08:20:44;;;;;;;1.00;0.90;;;21.80;66.50;;;;;;5026393;28;20873;-57
2023/05/03 08:23:11;;;;;;;2.00;1.57;;;21.80;66.20;;;;;;5023763;28;20473;-57
2023/05/03 08:25:37;;;;;;;2.47;1.40;;;21.70;65.70;;;;;;5021979;28;20546;-52
2023/05/03 08:28:05;;;;;;;1.30;0.93;;;21.70;65.70;;;;;;5025240;28;20462;-53
2023/05/03 08:30:32;;;;;;;1.60;1.13;;;21.70;65.70;;;;;;5024902;28;20467;-57
2023/05/03 08:33:00;;;;;;;2.10;1.43;;;21.70;65.70;;;;;;5028168;28;20475;-52
2023/05/03 08:35:27;;;;;;;4.40;1.17;;;21.70;65.70;;;;;;5025779;28;20472;-52
2023/05/03 08:37:54;;;;;;;1.30;1.10;;;21.70;65.80;;;;;;5016514;28;20494;-59
2023/05/03 08:40:22;;;;;;;2.95;1.30;;;21.70;65.90;;;;;;5026319;28;20459;-56
2023/05/03 08:42:49;;;;;;;1.45;1.10;;;21.70;66.00;;;;;;5028335;28;20691;-50
2023/05/03 08:45:17;;;;;;;3.83;1.40;;;21.70;66.00;;;;;;5030232;28;20216;-51
2023/05/03 08:47:44;;;;;;;2.27;1.43;;;21.70;66.10;;;;;;5033933;28;20520;-52
2023/05/03 08:50:14;;;;;;;1.60;1.00;;;21.70;66.10;;;;;;5033598;28;20455;-51
2023/05/03 08:52:43;;;;;;;2.20;1.10;;;21.70;66.10;;;;;;5031309;28;21053;-52
2023/05/03 08:55:10;;;;;;;3.33;1.70;;;21.70;66.20;;;;;;5026323;28;20462;-56
2023/05/03 08:57:38;;;;;;;2.00;1.07;;;21.80;66.30;;;;;;5033946;28;20450;-59
2023/05/03 09:00:09;;;;;;;1.33;1.10;;;21.80;67.10;;;;;;5022137;28;20475;-58
2023/05/03 09:02:38;;;;;;;1.30;1.10;;;21.90;66.40;;;;;;5023332;28;20454;-64
2023/05/03 09:05:06;;;;;;;2.03;1.10;;;21.90;66.50;;;;;;5033716;28;20471;-60
2023/05/03 09:07:34;;;;;;;2.70;1.00;;;21.90;66.50;;;;;;5021113;28;20454;-55
2023/05/03 09:10:01;;;;;;;3.07;1.10;;;21.90;66.60;;;;;;5023131;28;20974;-58
2023/05/03 09:12:35;;;;;;;1.50;1.10;;;22.00;66.70;;;;;;5021277;28;20479;-55
2023/05/03 09:15:03;;;;;;;1.83;1.20;;;22.00;66.70;;;;;;5028552;28;20459;-57
2023/05/03 09:17:30;;;;;;;2.13;1.13;;;22.00;66.80;;;;;;5034731;28;20505;-56
2023/05/03 09:19:58;;;;;;;1.33;1.23;;;22.00;66.80;;;;;;5030198;28;20497;-55
2023/05/03 09:22:27;;;;;;;2.43;1.20;;;22.10;66.90;;;;;;5026966;28;21093;-51
2023/05/03 09:24:56;;;;;;;1.03;0.93;;;22.10;66.90;;;;;;5023924;28;20505;-58
2023/05/03 09:27:24;;;;;;;1.20;0.90;;;22.20;67.00;;;;;;5031335;28;21029;-63
2023/05/03 09:29:51;;;;;;;1.57;0.90;;;22.10;66.90;;;;;;5029336;28;20455;-62
2023/05/03 09:32:20;;;;;;;1.43;0.97;;;22.20;67.00;;;;;;5024595;28;21016;-59
2023/05/03 09:34:47;;;;;;;2.40;1.10;;;22.20;67.00;;;;;;5028633;28;20467;-62
2023/05/03 09:37:14;;;;;;;1.27;1.03;;;22.20;66.90;;;;;;5027253;28;20462;-56
2023/05/03 09:39:41;;;;;;;1.83;1.03;;;22.30;67.00;;;;;;5024185;28;20815;-59
2023/05/03 09:42:14;;;;;;;1.17;0.80;;;22.30;67.00;;;;;;5027492;28;20469;-56
2023/05/03 09:44:43;;;;;;;1.00;0.80;;;22.30;66.90;;;;;;5028554;28;20877;-57
2023/05/03 09:47:10;;;;;;;1.30;0.90;;;22.30;67.00;;;;;;5027676;28;20466;-57
2023/05/03 09:49:38;;;;;;;2.10;0.90;;;22.30;66.90;;;;;;5031751;28;20508;-62
2023/05/03 09:52:06;;;;;;;1.10;0.90;;;22.40;67.00;;;;;;5036138;28;21141;-62
2023/05/03 09:54:34;;;;;;;2.80;1.07;;;22.40;66.90;;;;;;5033820;28;20490;-52
2023/05/03 09:57:04;;;;;;;1.00;0.80;;;22.40;66.80;;;;;;5031256;28;20467;-55
2023/05/03 09:59:33;;;;;;;1.50;0.90;;;22.40;66.80;;;;;;5036868;28;20558;-58
2023/05/03 10:02:03;;;;;;;1.10;1.00;;;22.50;66.80;;;;;;5025207;28;20462;-62
2023/05/03 10:04:42;;;;;;;3.23;1.10;;;22.50;66.80;;;;;;5029290;28;20469;-53
2023/05/03 10:07:13;;;;;;;1.83;1.10;;;22.50;66.70;;;;;;5035001;28;20468;-58
2023/05/03 10:09:43;;;;;;;1.93;1.20;;;22.50;66.00;;;;;;5020683;28;20533;-60
2023/05/03 10:12:12;;;;;;;3.00;1.00;;;22.40;66.10;;;;;;5028555;28;20453;-58
2023/05/03 10:14:42;;;;;;;1.30;1.00;;;22.40;66.20;;;;;;5026417;28;20955;-55
2023/05/03 10:17:14;;;;;;;2.53;1.10;;;22.40;66.20;;;;;;5019136;28;20914;-59
2023/05/03 10:19:51;;;;;;;2.50;1.10;;;22.40;66.10;;;;;;5025321;28;20458;-55
2023/05/03 10:22:17;;;;;;;1.20;0.90;;;22.40;66.10;;;;;;5023215;28;20572;-57
2023/05/03 10:25:08;;;;;;;1.20;1.00;;;22.40;66.00;;;;;;5021670;28;20459;-54
2023/05/03 10:27:42;;;;;;;5.37;1.13;;;22.50;66.00;;;;;;5020651;28;20459;-54
2023/05/03 10:30:31;;;;;;;3.30;1.57;;;22.40;66.00;;;;;;5022042;28;20485;-57
2023/05/03 10:32:58;;;;;;;2.50;0.90;;;22.40;65.90;;;;;;5028961;28;20474;-54
2023/05/03 10:35:29;;;;;;;3.83;0.90;;;22.40;66.00;;;;;;5038320;28;20496;-56
2023/05/03 10:37:57;;;;;;;3.07;0.90;;;22.40;66.00;;;;;;5005966;28;20469;-57
2023/05/03 10:40:28;;;;;;;1.60;1.00;;;22.40;65.70;;;;;;5016962;28;20557;-55
2023/05/03 10:42:56;;;;;;;1.87;1.10;;;22.40;65.50;;;;;;5021400;28;20532;-57
2023/05/03 10:45:27;;;;;;;1.10;0.90;;;22.50;65.60;;;;;;5023940;28;20454;-53
2023/05/03 10:48:19;;;;;;;1.67;0.90;;;22.50;65.70;;;;;;5029119;28;20459;-57
2023/05/03 10:50:46;;;;;;;1.07;0.80;;;22.60;65.70;;;;;;5032238;28;20466;-53
2023/05/03 10:53:36;;;;;;;1.63;1.10;;;22.60;65.70;;;;;;5031870;28;20881;-60
2023/05/03 10:56:06;;;;;;;4.20;1.00;;;22.70;65.80;;;;;;5025850;28;20465;-64
2023/05/03 10:58:36;;;;;;;1.20;0.90;;;22.70;65.90;;;;;;5017709;28;20484;-52
2023/05/03 11:01:06;;;;;;;1.30;0.80;;;22.70;65.90;;;;;;5027059;28;20459;-58
2023/05/03 11:03:52;;;;;;;2.07;1.17;;;22.70;65.90;;;;;;5032243;28;20463;-58
2023/05/03 11:06:32;;;;;;;1.47;0.97;;;22.80;65.90;;;;;;5039532;28;20532;-59
2023/05/03 11:08:59;;;;;;;1.97;1.10;;;22.80;65.80;;;;;;5029550;28;20601;-56
2023/05/03 11:11:26;;;;;;;1.17;0.83;;;22.80;65.80;;;;;;5030265;28;20848;-57
2023/05/03 11:13:53;;;;;;;2.80;1.43;;;22.80;65.90;;;;;;5030243;28;20509;-60
2023/05/03 11:16:21;;;;;;;1.10;0.87;;;22.80;65.60;;;;;;5027394;28;20463;-54
2023/05/03 11:18:48;;;;;;;1.10;0.90;;;22.80;65.60;;;;;;5037401;28;20827;-51
2023/05/03 11:21:16;;;;;;;1.00;0.77;;;22.80;65.60;;;;;;5037082;28;20868;-56
2023/05/03 11:23:43;;;;;;;2.10;0.90;;;22.80;66.40;;;;;;5018868;28;20971;-59
2023/05/03 11:26:10;;;;;;;1.50;1.00;;;22.90;65.80;;;;;;5017148;28;20455;-53
2023/05/03 11:28:38;;;;;;;1.10;0.90;;;22.90;65.70;;;;;;5012059;28;20536;-54
2023/05/03 11:31:06;;;;;;;1.10;0.90;;;22.90;65.70;;;;;;5021269;28;20466;-58
2023/05/03 11:33:34;;;;;;;1.30;1.00;;;22.90;65.70;;;;;;5031858;28;20502;-56
2023/05/03 11:36:02;;;;;;;1.20;0.77;;;22.90;66.50;;;;;;5027879;28;20541;-57
2023/05/03 11:38:30;;;;;;;1.10;0.80;;;22.90;65.80;;;;;;5032505;28;20458;-56
2023/05/03 11:40:57;;;;;;;1.10;0.83;;;22.90;65.70;;;;;;5024476;28;20465;-51
2023/05/03 11:43:24;;;;;;;1.43;1.00;;;22.90;65.60;;;;;;5029641;28;20466;-52
2023/05/03 11:45:52;;;;;;;1.10;0.90;;;22.90;65.60;;;;;;5027697;28;20458;-54
2023/05/03 11:48:19;;;;;;;2.33;1.07;;;22.90;65.50;;;;;;5024377;28;20459;-51
2023/05/03 11:50:50;;;;;;;1.50;1.37;;;22.90;65.60;;;;;;5035294;28;20532;-58
2023/05/03 11:53:18;;;;;;;1.27;1.07;;;23.00;65.70;;;;;;5030346;28;20957;-59
2023/05/03 11:55:46;;;;;;;3.83;1.20;;;23.00;65.60;;;;;;5018780;28;20512;-60
2023/05/03 11:58:13;;;;;;;1.57;1.37;;;22.90;65.60;;;;;;5025917;28;20906;-55
2023/05/03 12:00:43;;;;;;;1.42;0.90;;;23.00;65.70;;;;;;5023788;28;20826;-60
2023/05/03 12:03:10;;;;;;;3.13;1.10;;;23.00;65.90;;;;;;5026235;28;20204;-59
2023/05/03 12:05:37;;;;;;;1.00;0.90;;;23.00;65.60;;;;;;5031325;28;20535;-58
2023/05/03 12:08:05;;;;;;;3.10;1.20;;;23.00;65.70;;;;;;5027591;28;20455;-56
2023/05/03 12:10:33;;;;;;;2.13;0.90;;;23.00;65.60;;;;;;5028249;28;20923;-56
2023/05/03 12:13:00;;;;;;;0.93;0.73;;;23.00;65.60;;;;;;5029561;28;21044;-58
2023/05/03 12:15:29;;;;;;;1.10;0.70;;;23.00;65.50;;;;;;5026541;28;20534;-58
2023/05/03 12:17:57;;;;;;;2.30;1.10;;;22.90;65.30;;;;;;5029939;28;20541;-55
2023/05/03 12:20:25;;;;;;;3.37;1.10;;;22.90;65.30;;;;;;5032428;28;20461;-54
2023/05/03 12:22:53;;;;;;;1.50;1.00;;;23.00;65.60;;;;;;5031131;28;20502;-52
2023/05/03 12:25:21;;;;;;;1.40;1.23;;;22.90;65.30;;;;;;5026339;28;20512;-55
2023/05/03 12:27:47;;;;;;;1.50;1.07;;;22.90;65.20;;;;;;5027414;28;20463;-55
2023/05/03 12:30:15;;;;;;;7.47;1.47;;;22.90;65.10;;;;;;5027880;28;21212;-56
2023/05/03 12:32:41;;;;;;;4.33;1.83;;;23.00;65.10;;;;;;5032747;28;20463;-56
2023/05/03 12:35:08;;;;;;;15.50;1.70;;;22.90;65.00;;;;;;5026305;28;20509;-55
2023/05/03 12:37:36;;;;;;;6.40;1.73;;;22.80;65.00;;;;;;5028119;28;20942;-51
2023/05/03 12:40:03;;;;;;;3.00;1.63;;;22.80;65.00;;;;;;5020949;28;20458;-56
2023/05/03 12:42:31;;;;;;;3.00;1.70;;;22.80;65.30;;;;;;5023013;28;20458;-53
2023/05/03 12:44:58;;;;;;;3.53;1.50;;;22.80;65.40;;;;;;5020001;28;20455;-52
2023/05/03 12:47:25;;;;;;;3.30;1.30;;;22.80;65.30;;;;;;5033071;28;20462;-55
2023/05/03 12:49:52;;;;;;;6.67;1.80;;;22.70;65.30;;;;;;5032281;28;20554;-55